sensor_id;sensor_type;location;lat;lon;timestamp;P1;durP1;ratioP1;P2;durP2;ratioP2
59193;SDS011;44967;48.598;15.650;2022-12-07T00:03:55;3.90;;;2.70;;
59193;SDS011;44967;48.598;15.650;2022-12-07T00:06:26;4.07;;;3.08;;
59193;SDS011;44967;48.598;15.650;2022-12-07T00:08:51;5.20;;;3.22;;
59193;SDS011;44967;48.598;15.650;2022-12-07T00:11:18;5.60;;;3.05;;
59193;SDS011;44967;48.598;15.650;2022-12-07T00:13:56;5.10;;;3.72;;
59193;SDS011;44967;48.598;15.650;2022-12-07T00:16:24;3.88;;;3.50;;
59193;SDS011;44967;48.598;15.650;2022-12-07T00:18:52;6.18;;;3.75;;
59193;SDS011;44967;48.598;15.650;2022-12-07T00:21:19;6.20;;;4.30;;
59193;SDS011;44967;48.598;15.650;2022-12-07T00:23:47;7.47;;;4.40;;
59193;SDS011;44967;48.598;15.650;2022-12-07T00:26:17;8.00;;;4.65;;
59193;SDS011;44967;48.598;15.650;2022-12-07T00:28:47;6.10;;;4.20;;
59193;SDS011;44967;48.598;15.650;2022-12-07T00:31:19;7.03;;;4.30;;
59193;SDS011;44967;48.598;15.650;2022-12-07T00:33:46;5.78;;;4.18;;
59193;SDS011;44967;48.598;15.650;2022-12-07T00:36:14;6.57;;;4.57;;
59193;SDS011;44967;48.598;15.650;2022-12-07T00:38:41;6.88;;;4.55;;
59193;SDS011;44967;48.598;15.650;2022-12-07T00:41:11;6.78;;;4.68;;
59193;SDS011;44967;48.598;15.650;2022-12-07T00:43:39;7.05;;;4.38;;
59193;SDS011;44967;48.598;15.650;2022-12-07T00:46:06;7.78;;;4.82;;
59193;SDS011;44967;48.598;15.650;2022-12-07T00:48:32;5.65;;;4.15;;
59193;SDS011;44967;48.598;15.650;2022-12-07T00:50:57;7.88;;;5.15;;
59193;SDS011;44967;48.598;15.650;2022-12-07T00:53:24;5.88;;;4.35;;
59193;SDS011;44967;48.598;15.650;2022-12-07T00:55:51;8.77;;;5.35;;
59193;SDS011;44967;48.598;15.650;2022-12-07T00:58:17;8.07;;;5.28;;
59193;SDS011;44967;48.598;15.650;2022-12-07T01:00:44;5.78;;;4.30;;
59193;SDS011;44967;48.598;15.650;2022-12-07T01:03:11;6.60;;;4.20;;
59193;SDS011;44967;48.598;15.650;2022-12-07T01:05:38;6.53;;;4.80;;
59193;SDS011;44967;48.598;15.650;2022-12-07T01:08:05;8.27;;;5.00;;
59193;SDS011;44967;48.598;15.650;2022-12-07T01:10:31;5.30;;;4.10;;
59193;SDS011;44967;48.598;15.650;2022-12-07T01:12:57;5.93;;;4.35;;
59193;SDS011;44967;48.598;15.650;2022-12-07T01:15:24;6.38;;;4.70;;
59193;SDS011;44967;48.598;15.650;2022-12-07T01:17:50;6.20;;;4.30;;
59193;SDS011;44967;48.598;15.650;2022-12-07T01:20:16;5.93;;;4.50;;
59193;SDS011;44967;48.598;15.650;2022-12-07T01:22:43;6.90;;;4.57;;
59193;SDS011;44967;48.598;15.650;2022-12-07T01:25:09;5.97;;;4.15;;
59193;SDS011;44967;48.598;15.650;2022-12-07T01:27:36;6.70;;;4.38;;
59193;SDS011;44967;48.598;15.650;2022-12-07T01:30:03;6.05;;;4.30;;
59193;SDS011;44967;48.598;15.650;2022-12-07T01:32:30;6.63;;;4.70;;
59193;SDS011;44967;48.598;15.650;2022-12-07T01:34:56;7.72;;;5.07;;
59193;SDS011;44967;48.598;15.650;2022-12-07T01:37:21;7.55;;;5.15;;
59193;SDS011;44967;48.598;15.650;2022-12-07T01:39:50;6.53;;;4.55;;
59193;SDS011;44967;48.598;15.650;2022-12-07T01:42:17;5.97;;;4.18;;
59193;SDS011;44967;48.598;15.650;2022-12-07T01:47:43;6.55;;;4.30;;
59193;SDS011;44967;48.598;15.650;2022-12-07T01:50:16;6.50;;;4.53;;
59193;SDS011;44967;48.598;15.650;2022-12-07T01:52:42;7.53;;;4.53;;
59193;SDS011;44967;48.598;15.650;2022-12-07T01:55:14;5.68;;;4.10;;
59193;SDS011;44967;48.598;15.650;2022-12-07T01:57:41;5.53;;;4.07;;
59193;SDS011;44967;48.598;15.650;2022-12-07T02:00:10;6.53;;;4.10;;
59193;SDS011;44967;48.598;15.650;2022-12-07T02:02:49;7.13;;;4.63;;
59193;SDS011;44967;48.598;15.650;2022-12-07T02:05:20;6.88;;;4.22;;
59193;SDS011;44967;48.598;15.650;2022-12-07T02:07:48;5.85;;;4.25;;
59193;SDS011;44967;48.598;15.650;2022-12-07T02:10:18;5.95;;;3.88;;
59193;SDS011;44967;48.598;15.650;2022-12-07T02:13:02;6.75;;;3.95;;
59193;SDS011;44967;48.598;15.650;2022-12-07T02:15:34;5.40;;;3.83;;
59193;SDS011;44967;48.598;15.650;2022-12-07T02:18:14;6.47;;;4.00;;
59193;SDS011;44967;48.598;15.650;2022-12-07T02:29:11;5.50;;;3.67;;
59193;SDS011;44967;48.598;15.650;2022-12-07T02:31:49;3.75;;;2.90;;
59193;SDS011;44967;48.598;15.650;2022-12-07T02:34:26;5.13;;;3.33;;
59193;SDS011;44967;48.598;15.650;2022-12-07T02:37:00;6.13;;;3.50;;
59193;SDS011;44967;48.598;15.650;2022-12-07T02:39:44;5.50;;;3.30;;
59193;SDS011;44967;48.598;15.650;2022-12-07T02:42:22;4.70;;;3.53;;
59193;SDS011;44967;48.598;15.650;2022-12-07T02:44:51;5.03;;;3.80;;
59193;SDS011;44967;48.598;15.650;2022-12-07T02:47:18;4.22;;;3.20;;
59193;SDS011;44967;48.598;15.650;2022-12-07T02:49:47;6.40;;;3.47;;
59193;SDS011;44967;48.598;15.650;2022-12-07T02:52:14;5.03;;;2.90;;
59193;SDS011;44967;48.598;15.650;2022-12-07T02:54:39;4.45;;;2.90;;
59193;SDS011;44967;48.598;15.650;2022-12-07T03:02:38;4.32;;;2.90;;
59193;SDS011;44967;48.598;15.650;2022-12-07T03:08:24;6.68;;;3.60;;
59193;SDS011;44967;48.598;15.650;2022-12-07T03:11:05;6.30;;;3.47;;
59193;SDS011;44967;48.598;15.650;2022-12-07T03:18:57;4.93;;;3.53;;
59193;SDS011;44967;48.598;15.650;2022-12-07T03:21:32;6.05;;;3.17;;
59193;SDS011;44967;48.598;15.650;2022-12-07T03:24:03;3.65;;;2.75;;
59193;SDS011;44967;48.598;15.650;2022-12-07T03:26:35;8.30;;;4.63;;
59193;SDS011;44967;48.598;15.650;2022-12-07T03:29:16;6.65;;;3.88;;
59193;SDS011;44967;48.598;15.650;2022-12-07T03:31:49;5.60;;;3.92;;
59193;SDS011;44967;48.598;15.650;2022-12-07T03:34:38;6.60;;;3.58;;
59193;SDS011;44967;48.598;15.650;2022-12-07T03:37:12;6.70;;;3.63;;
59193;SDS011;44967;48.598;15.650;2022-12-07T03:40:07;5.75;;;3.72;;
59193;SDS011;44967;48.598;15.650;2022-12-07T03:42:48;4.93;;;3.08;;
59193;SDS011;44967;48.598;15.650;2022-12-07T03:45:16;5.40;;;3.63;;
59193;SDS011;44967;48.598;15.650;2022-12-07T03:47:50;4.50;;;2.83;;
59193;SDS011;44967;48.598;15.650;2022-12-07T03:50:28;5.38;;;3.17;;
59193;SDS011;44967;48.598;15.650;2022-12-07T03:53:10;4.43;;;3.05;;
59193;SDS011;44967;48.598;15.650;2022-12-07T03:55:42;5.10;;;3.58;;
59193;SDS011;44967;48.598;15.650;2022-12-07T03:58:11;5.18;;;3.35;;
59193;SDS011;44967;48.598;15.650;2022-12-07T04:00:41;4.07;;;2.75;;
59193;SDS011;44967;48.598;15.650;2022-12-07T04:03:08;4.70;;;3.20;;
59193;SDS011;44967;48.598;15.650;2022-12-07T04:05:34;4.13;;;3.22;;
59193;SDS011;44967;48.598;15.650;2022-12-07T04:08:00;5.00;;;3.15;;
59193;SDS011;44967;48.598;15.650;2022-12-07T04:10:26;7.45;;;3.42;;
59193;SDS011;44967;48.598;15.650;2022-12-07T04:12:51;4.25;;;2.97;;
59193;SDS011;44967;48.598;15.650;2022-12-07T04:15:17;3.70;;;3.25;;
59193;SDS011;44967;48.598;15.650;2022-12-07T04:17:43;5.38;;;3.42;;
59193;SDS011;44967;48.598;15.650;2022-12-07T04:20:09;6.38;;;3.20;;
59193;SDS011;44967;48.598;15.650;2022-12-07T04:22:35;4.18;;;2.90;;
59193;SDS011;44967;48.598;15.650;2022-12-07T04:25:01;3.55;;;2.88;;
59193;SDS011;44967;48.598;15.650;2022-12-07T04:27:26;4.70;;;2.83;;
59193;SDS011;44967;48.598;15.650;2022-12-07T04:29:52;4.05;;;2.47;;
59193;SDS011;44967;48.598;15.650;2022-12-07T04:32:17;4.50;;;3.00;;
59193;SDS011;44967;48.598;15.650;2022-12-07T04:34:43;3.28;;;2.40;;
59193;SDS011;44967;48.598;15.650;2022-12-07T04:37:08;4.07;;;2.60;;
59193;SDS011;44967;48.598;15.650;2022-12-07T04:39:34;3.75;;;2.65;;
59193;SDS011;44967;48.598;15.650;2022-12-07T04:42:00;4.30;;;3.10;;
59193;SDS011;44967;48.598;15.650;2022-12-07T04:44:27;4.68;;;3.10;;
59193;SDS011;44967;48.598;15.650;2022-12-07T04:46:54;4.68;;;3.35;;
59193;SDS011;44967;48.598;15.650;2022-12-07T04:49:20;4.90;;;3.55;;
59193;SDS011;44967;48.598;15.650;2022-12-07T04:51:46;6.82;;;3.65;;
59193;SDS011;44967;48.598;15.650;2022-12-07T04:54:12;5.18;;;3.28;;
59193;SDS011;44967;48.598;15.650;2022-12-07T04:56:39;6.07;;;3.20;;
59193;SDS011;44967;48.598;15.650;2022-12-07T04:59:05;4.18;;;3.03;;
59193;SDS011;44967;48.598;15.650;2022-12-07T05:01:31;4.72;;;3.50;;
59193;SDS011;44967;48.598;15.650;2022-12-07T05:03:57;6.03;;;3.50;;
59193;SDS011;44967;48.598;15.650;2022-12-07T05:06:23;5.38;;;3.63;;
59193;SDS011;44967;48.598;15.650;2022-12-07T05:08:49;5.20;;;3.70;;
59193;SDS011;44967;48.598;15.650;2022-12-07T05:11:14;4.85;;;3.60;;
59193;SDS011;44967;48.598;15.650;2022-12-07T05:13:58;4.88;;;3.40;;
59193;SDS011;44967;48.598;15.650;2022-12-07T05:16:24;11.25;;;5.35;;
59193;SDS011;44967;48.598;15.650;2022-12-07T05:18:50;10.63;;;5.38;;
59193;SDS011;44967;48.598;15.650;2022-12-07T05:21:16;7.97;;;4.60;;
59193;SDS011;44967;48.598;15.650;2022-12-07T05:23:41;4.53;;;3.28;;
59193;SDS011;44967;48.598;15.650;2022-12-07T05:26:08;4.68;;;3.53;;
59193;SDS011;44967;48.598;15.650;2022-12-07T05:28:33;5.43;;;3.58;;
59193;SDS011;44967;48.598;15.650;2022-12-07T05:30:59;7.65;;;4.05;;
59193;SDS011;44967;48.598;15.650;2022-12-07T05:33:24;4.80;;;3.20;;
59193;SDS011;44967;48.598;15.650;2022-12-07T05:35:50;4.43;;;3.17;;
59193;SDS011;44967;48.598;15.650;2022-12-07T05:38:15;3.80;;;2.85;;
59193;SDS011;44967;48.598;15.650;2022-12-07T05:40:41;4.57;;;3.20;;
59193;SDS011;44967;48.598;15.650;2022-12-07T05:43:07;3.55;;;3.15;;
59193;SDS011;44967;48.598;15.650;2022-12-07T05:45:32;4.85;;;3.35;;
59193;SDS011;44967;48.598;15.650;2022-12-07T05:47:58;3.00;;;2.53;;
59193;SDS011;44967;48.598;15.650;2022-12-07T05:50:24;4.57;;;2.78;;
59193;SDS011;44967;48.598;15.650;2022-12-07T05:52:50;3.67;;;3.03;;
59193;SDS011;44967;48.598;15.650;2022-12-07T05:55:15;5.55;;;3.25;;
59193;SDS011;44967;48.598;15.650;2022-12-07T05:57:41;5.32;;;4.07;;
59193;SDS011;44967;48.598;15.650;2022-12-07T06:00:27;4.50;;;3.28;;
59193;SDS011;44967;48.598;15.650;2022-12-07T06:02:52;4.07;;;2.65;;
59193;SDS011;44967;48.598;15.650;2022-12-07T06:05:18;5.22;;;2.97;;
59193;SDS011;44967;48.598;15.650;2022-12-07T06:07:43;3.63;;;2.80;;
59193;SDS011;44967;48.598;15.650;2022-12-07T06:10:09;4.53;;;3.03;;
59193;SDS011;44967;48.598;15.650;2022-12-07T06:12:35;3.85;;;2.67;;
59193;SDS011;44967;48.598;15.650;2022-12-07T06:15:03;5.07;;;3.28;;
59193;SDS011;44967;48.598;15.650;2022-12-07T06:17:29;4.32;;;2.80;;
59193;SDS011;44967;48.598;15.650;2022-12-07T06:19:54;5.22;;;3.00;;
59193;SDS011;44967;48.598;15.650;2022-12-07T06:22:20;5.57;;;3.75;;
59193;SDS011;44967;48.598;15.650;2022-12-07T06:24:46;4.63;;;3.28;;
59193;SDS011;44967;48.598;15.650;2022-12-07T06:27:11;4.82;;;3.05;;
59193;SDS011;44967;48.598;15.650;2022-12-07T06:29:37;3.65;;;3.20;;
59193;SDS011;44967;48.598;15.650;2022-12-07T06:32:03;5.25;;;3.38;;
59193;SDS011;44967;48.598;15.650;2022-12-07T06:34:30;3.72;;;3.15;;
59193;SDS011;44967;48.598;15.650;2022-12-07T06:36:56;4.45;;;2.97;;
59193;SDS011;44967;48.598;15.650;2022-12-07T06:39:23;4.00;;;2.78;;
59193;SDS011;44967;48.598;15.650;2022-12-07T06:41:50;3.80;;;2.80;;
59193;SDS011;44967;48.598;15.650;2022-12-07T06:44:17;4.10;;;2.95;;
59193;SDS011;44967;48.598;15.650;2022-12-07T06:46:43;5.32;;;3.47;;
59193;SDS011;44967;48.598;15.650;2022-12-07T06:49:09;5.00;;;3.05;;
59193;SDS011;44967;48.598;15.650;2022-12-07T06:51:34;4.63;;;3.58;;
59193;SDS011;44967;48.598;15.650;2022-12-07T06:54:04;9.73;;;5.68;;
59193;SDS011;44967;48.598;15.650;2022-12-07T06:56:30;12.32;;;6.45;;
59193;SDS011;44967;48.598;15.650;2022-12-07T06:58:56;8.25;;;4.78;;
59193;SDS011;44967;48.598;15.650;2022-12-07T07:01:21;9.60;;;4.88;;
59193;SDS011;44967;48.598;15.650;2022-12-07T07:03:47;7.22;;;4.35;;
59193;SDS011;44967;48.598;15.650;2022-12-07T07:06:13;5.75;;;3.53;;
59193;SDS011;44967;48.598;15.650;2022-12-07T07:08:39;7.65;;;3.47;;
59193;SDS011;44967;48.598;15.650;2022-12-07T07:11:06;4.32;;;3.05;;
59193;SDS011;44967;48.598;15.650;2022-12-07T07:13:33;3.20;;;2.60;;
59193;SDS011;44967;48.598;15.650;2022-12-07T07:15:59;7.22;;;4.13;;
59193;SDS011;44967;48.598;15.650;2022-12-07T07:18:25;7.72;;;4.32;;
59193;SDS011;44967;48.598;15.650;2022-12-07T07:20:51;7.80;;;3.67;;
59193;SDS011;44967;48.598;15.650;2022-12-07T07:23:17;8.02;;;4.05;;
59193;SDS011;44967;48.598;15.650;2022-12-07T07:25:44;5.47;;;3.78;;
59193;SDS011;44967;48.598;15.650;2022-12-07T07:28:10;5.15;;;3.40;;
59193;SDS011;44967;48.598;15.650;2022-12-07T07:30:36;5.25;;;3.28;;
59193;SDS011;44967;48.598;15.650;2022-12-07T07:33:02;5.95;;;3.30;;
59193;SDS011;44967;48.598;15.650;2022-12-07T07:35:30;5.03;;;3.53;;
59193;SDS011;44967;48.598;15.650;2022-12-07T07:37:56;8.63;;;4.80;;
59193;SDS011;44967;48.598;15.650;2022-12-07T07:40:22;5.45;;;3.28;;
59193;SDS011;44967;48.598;15.650;2022-12-07T07:42:51;4.10;;;3.05;;
59193;SDS011;44967;48.598;15.650;2022-12-07T07:45:18;4.57;;;3.28;;
59193;SDS011;44967;48.598;15.650;2022-12-07T07:47:45;5.20;;;3.13;;
59193;SDS011;44967;48.598;15.650;2022-12-07T07:50:11;5.07;;;2.47;;
59193;SDS011;44967;48.598;15.650;2022-12-07T07:52:36;4.03;;;2.50;;
59193;SDS011;44967;48.598;15.650;2022-12-07T07:55:03;3.10;;;2.10;;
59193;SDS011;44967;48.598;15.650;2022-12-07T07:57:29;4.53;;;1.98;;
59193;SDS011;44967;48.598;15.650;2022-12-07T07:59:54;3.33;;;2.45;;
59193;SDS011;44967;48.598;15.650;2022-12-07T08:02:20;5.30;;;2.80;;
59193;SDS011;44967;48.598;15.650;2022-12-07T08:04:47;6.75;;;3.35;;
59193;SDS011;44967;48.598;15.650;2022-12-07T08:07:13;3.63;;;2.97;;
59193;SDS011;44967;48.598;15.650;2022-12-07T08:09:40;2.88;;;2.40;;
59193;SDS011;44967;48.598;15.650;2022-12-07T08:12:05;3.42;;;2.35;;
59193;SDS011;44967;48.598;15.650;2022-12-07T08:14:31;2.88;;;2.40;;
59193;SDS011;44967;48.598;15.650;2022-12-07T08:16:57;2.28;;;2.08;;
59193;SDS011;44967;48.598;15.650;2022-12-07T08:19:23;3.08;;;2.22;;
59193;SDS011;44967;48.598;15.650;2022-12-07T08:21:49;2.72;;;2.03;;
59193;SDS011;44967;48.598;15.650;2022-12-07T08:24:15;2.70;;;2.28;;
59193;SDS011;44967;48.598;15.650;2022-12-07T08:26:41;2.50;;;2.10;;
59193;SDS011;44967;48.598;15.650;2022-12-07T08:29:07;2.55;;;1.98;;
59193;SDS011;44967;48.598;15.650;2022-12-07T08:31:33;3.25;;;2.28;;
59193;SDS011;44967;48.598;15.650;2022-12-07T08:33:59;2.15;;;1.73;;
59193;SDS011;44967;48.598;15.650;2022-12-07T08:36:24;2.53;;;2.13;;
59193;SDS011;44967;48.598;15.650;2022-12-07T08:38:53;2.67;;;1.92;;
59193;SDS011;44967;48.598;15.650;2022-12-07T08:41:19;4.05;;;2.63;;
59193;SDS011;44967;48.598;15.650;2022-12-07T08:43:45;4.47;;;2.40;;
59193;SDS011;44967;48.598;15.650;2022-12-07T08:48:52;3.78;;;2.22;;
59193;SDS011;44967;48.598;15.650;2022-12-07T08:51:21;3.00;;;1.90;;
59193;SDS011;44967;48.598;15.650;2022-12-07T08:53:48;3.55;;;2.10;;
59193;SDS011;44967;48.598;15.650;2022-12-07T08:56:15;5.00;;;2.50;;
59193;SDS011;44967;48.598;15.650;2022-12-07T08:58:41;2.13;;;1.85;;
59193;SDS011;44967;48.598;15.650;2022-12-07T09:01:07;2.25;;;2.05;;
59193;SDS011;44967;48.598;15.650;2022-12-07T09:03:33;4.28;;;2.13;;
59193;SDS011;44967;48.598;15.650;2022-12-07T09:05:59;2.25;;;2.03;;
59193;SDS011;44967;48.598;15.650;2022-12-07T09:08:46;4.10;;;2.78;;
59193;SDS011;44967;48.598;15.650;2022-12-07T09:11:14;3.85;;;2.30;;
59193;SDS011;44967;48.598;15.650;2022-12-07T09:13:40;2.50;;;1.77;;
59193;SDS011;44967;48.598;15.650;2022-12-07T09:16:06;2.65;;;2.13;;
59193;SDS011;44967;48.598;15.650;2022-12-07T09:18:32;3.20;;;2.38;;
59193;SDS011;44967;48.598;15.650;2022-12-07T09:20:57;2.85;;;2.65;;
59193;SDS011;44967;48.598;15.650;2022-12-07T09:23:24;2.47;;;1.80;;
59193;SDS011;44967;48.598;15.650;2022-12-07T09:25:50;2.28;;;2.08;;
59193;SDS011;44967;48.598;15.650;2022-12-07T09:28:16;4.35;;;1.88;;
59193;SDS011;44967;48.598;15.650;2022-12-07T09:30:45;2.35;;;1.98;;
59193;SDS011;44967;48.598;15.650;2022-12-07T09:33:12;4.90;;;1.98;;
59193;SDS011;44967;48.598;15.650;2022-12-07T09:35:38;2.22;;;2.03;;
59193;SDS011;44967;48.598;15.650;2022-12-07T09:38:08;2.72;;;2.10;;
59193;SDS011;44967;48.598;15.650;2022-12-07T09:40:34;1.98;;;1.75;;
59193;SDS011;44967;48.598;15.650;2022-12-07T09:43:00;2.15;;;1.95;;
59193;SDS011;44967;48.598;15.650;2022-12-07T09:45:31;4.97;;;1.90;;
59193;SDS011;44967;48.598;15.650;2022-12-07T09:48:00;1.47;;;1.37;;
59193;SDS011;44967;48.598;15.650;2022-12-07T09:50:28;4.82;;;1.85;;
59193;SDS011;44967;48.598;15.650;2022-12-07T09:53:30;2.53;;;2.05;;
59193;SDS011;44967;48.598;15.650;2022-12-07T09:55:53;2.67;;;1.88;;
59193;SDS011;44967;48.598;15.650;2022-12-07T09:58:20;2.13;;;1.90;;
59193;SDS011;44967;48.598;15.650;2022-12-07T10:00:50;1.73;;;1.48;;
59193;SDS011;44967;48.598;15.650;2022-12-07T10:03:18;2.75;;;1.52;;
59193;SDS011;44967;48.598;15.650;2022-12-07T10:05:45;3.75;;;1.65;;
59193;SDS011;44967;48.598;15.650;2022-12-07T10:08:14;2.88;;;1.90;;
59193;SDS011;44967;48.598;15.650;2022-12-07T10:10:42;2.58;;;1.60;;
59193;SDS011;44967;48.598;15.650;2022-12-07T10:13:19;3.38;;;1.73;;
59193;SDS011;44967;48.598;15.650;2022-12-07T10:15:48;2.72;;;1.80;;
59193;SDS011;44967;48.598;15.650;2022-12-07T10:20:47;1.65;;;1.55;;
59193;SDS011;44967;48.598;15.650;2022-12-07T10:23:17;2.47;;;1.67;;
59193;SDS011;44967;48.598;15.650;2022-12-07T10:25:43;1.77;;;1.48;;
59193;SDS011;44967;48.598;15.650;2022-12-07T10:28:17;2.05;;;1.45;;
59193;SDS011;44967;48.598;15.650;2022-12-07T10:30:59;2.65;;;1.80;;
59193;SDS011;44967;48.598;15.650;2022-12-07T10:33:34;1.63;;;1.50;;
59193;SDS011;44967;48.598;15.650;2022-12-07T10:36:24;2.17;;;1.52;;
59193;SDS011;44967;48.598;15.650;2022-12-07T10:38:51;2.15;;;1.63;;
59193;SDS011;44967;48.598;15.650;2022-12-07T10:41:17;3.15;;;2.20;;
59193;SDS011;44967;48.598;15.650;2022-12-07T10:43:48;2.17;;;1.98;;
59193;SDS011;44967;48.598;15.650;2022-12-07T10:57:39;3.22;;;1.67;;
59193;SDS011;44967;48.598;15.650;2022-12-07T11:04:05;4.15;;;2.30;;
59193;SDS011;44967;48.598;15.650;2022-12-07T11:06:38;2.30;;;1.90;;
59193;SDS011;44967;48.598;15.650;2022-12-07T11:09:29;3.92;;;1.92;;
59193;SDS011;44967;48.598;15.650;2022-12-07T11:23:46;2.00;;;1.58;;
59193;SDS011;44967;48.598;15.650;2022-12-07T11:31:56;4.47;;;1.80;;
59193;SDS011;44967;48.598;15.650;2022-12-07T11:34:36;2.13;;;1.70;;
59193;SDS011;44967;48.598;15.650;2022-12-07T11:37:06;1.77;;;1.67;;
59193;SDS011;44967;48.598;15.650;2022-12-07T11:39:50;2.83;;;2.17;;
59193;SDS011;44967;48.598;15.650;2022-12-07T11:50:47;2.63;;;1.70;;
59193;SDS011;44967;48.598;15.650;2022-12-07T11:53:26;2.72;;;1.80;;
59193;SDS011;44967;48.598;15.650;2022-12-07T11:56:00;3.58;;;1.90;;
59193;SDS011;44967;48.598;15.650;2022-12-07T12:01:06;1.83;;;1.35;;
59193;SDS011;44967;48.598;15.650;2022-12-07T12:03:38;2.22;;;1.42;;
59193;SDS011;44967;48.598;15.650;2022-12-07T12:06:09;2.20;;;1.38;;
59193;SDS011;44967;48.598;15.650;2022-12-07T12:11:20;2.00;;;1.70;;
59193;SDS011;44967;48.598;15.650;2022-12-07T12:14:18;1.92;;;1.50;;
59193;SDS011;44967;48.598;15.650;2022-12-07T12:19:42;1.92;;;1.40;;
59193;SDS011;44967;48.598;15.650;2022-12-07T12:22:27;2.17;;;1.23;;
59193;SDS011;44967;48.598;15.650;2022-12-07T12:25:06;1.40;;;1.30;;
59193;SDS011;44967;48.598;15.650;2022-12-07T12:27:40;2.03;;;1.48;;
59193;SDS011;44967;48.598;15.650;2022-12-07T12:33:06;1.55;;;1.30;;
59193;SDS011;44967;48.598;15.650;2022-12-07T12:35:46;5.00;;;1.20;;
59193;SDS011;44967;48.598;15.650;2022-12-07T12:46:51;2.23;;;1.73;;
59193;SDS011;44967;48.598;15.650;2022-12-07T12:51:53;1.45;;;1.33;;
59193;SDS011;44967;48.598;15.650;2022-12-07T12:54:24;1.60;;;1.33;;
59193;SDS011;44967;48.598;15.650;2022-12-07T12:59:33;2.47;;;1.67;;
59193;SDS011;44967;48.598;15.650;2022-12-07T13:24:07;4.32;;;2.13;;
59193;SDS011;44967;48.598;15.650;2022-12-07T13:26:20;2.85;;;1.65;;
59193;SDS011;44967;48.598;15.650;2022-12-07T13:28:50;3.25;;;2.15;;
59193;SDS011;44967;48.598;15.650;2022-12-07T13:33:52;4.70;;;2.35;;
59193;SDS011;44967;48.598;15.650;2022-12-07T13:36:19;3.13;;;2.10;;
59193;SDS011;44967;48.598;15.650;2022-12-07T13:38:49;2.42;;;2.00;;
59193;SDS011;44967;48.598;15.650;2022-12-07T13:41:17;3.00;;;1.95;;
59193;SDS011;44967;48.598;15.650;2022-12-07T13:43:46;3.55;;;1.90;;
59193;SDS011;44967;48.598;15.650;2022-12-07T13:46:26;2.53;;;1.80;;
59193;SDS011;44967;48.598;15.650;2022-12-07T13:49:19;2.47;;;1.73;;
59193;SDS011;44967;48.598;15.650;2022-12-07T13:51:47;1.98;;;1.75;;
59193;SDS011;44967;48.598;15.650;2022-12-07T13:54:14;2.83;;;2.30;;
59193;SDS011;44967;48.598;15.650;2022-12-07T13:56:40;10.38;;;3.35;;
59193;SDS011;44967;48.598;15.650;2022-12-07T13:59:19;2.03;;;1.80;;
59193;SDS011;44967;48.598;15.650;2022-12-07T14:01:47;2.08;;;1.88;;
59193;SDS011;44967;48.598;15.650;2022-12-07T14:06:57;2.05;;;1.55;;
59193;SDS011;44967;48.598;15.650;2022-12-07T14:09:24;2.95;;;1.90;;
59193;SDS011;44967;48.598;15.650;2022-12-07T14:11:55;4.78;;;1.75;;
59193;SDS011;44967;48.598;15.650;2022-12-07T14:14:30;4.82;;;1.88;;
59193;SDS011;44967;48.598;15.650;2022-12-07T14:17:12;2.35;;;2.08;;
59193;SDS011;44967;48.598;15.650;2022-12-07T14:19:56;5.65;;;2.70;;
59193;SDS011;44967;48.598;15.650;2022-12-07T14:24:58;2.90;;;2.03;;
59193;SDS011;44967;48.598;15.650;2022-12-07T14:27:49;3.42;;;3.05;;
59193;SDS011;44967;48.598;15.650;2022-12-07T14:30:21;3.17;;;2.15;;
59193;SDS011;44967;48.598;15.650;2022-12-07T14:32:51;2.78;;;2.13;;
59193;SDS011;44967;48.598;15.650;2022-12-07T14:35:19;7.28;;;2.65;;
59193;SDS011;44967;48.598;15.650;2022-12-07T14:37:46;2.83;;;2.20;;
59193;SDS011;44967;48.598;15.650;2022-12-07T14:40:28;2.85;;;2.10;;
59193;SDS011;44967;48.598;15.650;2022-12-07T14:45:50;2.78;;;1.95;;
59193;SDS011;44967;48.598;15.650;2022-12-07T14:48:16;3.65;;;2.50;;
59193;SDS011;44967;48.598;15.650;2022-12-07T14:50:45;2.53;;;1.75;;
59193;SDS011;44967;48.598;15.650;2022-12-07T14:53:17;2.37;;;1.93;;
59193;SDS011;44967;48.598;15.650;2022-12-07T14:55:48;3.05;;;2.35;;
59193;SDS011;44967;48.598;15.650;2022-12-07T14:58:14;4.50;;;2.25;;
59193;SDS011;44967;48.598;15.650;2022-12-07T15:00:42;3.45;;;2.42;;
59193;SDS011;44967;48.598;15.650;2022-12-07T15:03:09;2.88;;;2.33;;
59193;SDS011;44967;48.598;15.650;2022-12-07T15:05:34;3.13;;;2.20;;
59193;SDS011;44967;48.598;15.650;2022-12-07T15:08:01;5.53;;;3.33;;
59193;SDS011;44967;48.598;15.650;2022-12-07T15:10:29;3.20;;;1.98;;
59193;SDS011;44967;48.598;15.650;2022-12-07T15:12:57;6.00;;;2.97;;
59193;SDS011;44967;48.598;15.650;2022-12-07T15:15:44;5.05;;;3.10;;
59193;SDS011;44967;48.598;15.650;2022-12-07T15:18:10;5.90;;;2.85;;
59193;SDS011;44967;48.598;15.650;2022-12-07T15:20:35;2.88;;;2.45;;
59193;SDS011;44967;48.598;15.650;2022-12-07T15:23:02;3.45;;;2.30;;
59193;SDS011;44967;48.598;15.650;2022-12-07T15:25:27;3.10;;;2.25;;
59193;SDS011;44967;48.598;15.650;2022-12-07T15:27:53;6.68;;;3.35;;
59193;SDS011;44967;48.598;15.650;2022-12-07T15:30:18;9.90;;;5.30;;
59193;SDS011;44967;48.598;15.650;2022-12-07T15:32:48;10.27;;;3.95;;
59193;SDS011;44967;48.598;15.650;2022-12-07T15:35:14;3.47;;;2.60;;
59193;SDS011;44967;48.598;15.650;2022-12-07T15:37:40;3.03;;;2.40;;
59193;SDS011;44967;48.598;15.650;2022-12-07T15:40:06;3.00;;;2.15;;
59193;SDS011;44967;48.598;15.650;2022-12-07T15:42:32;2.42;;;1.95;;
59193;SDS011;44967;48.598;15.650;2022-12-07T15:44:58;3.13;;;2.20;;
59193;SDS011;44967;48.598;15.650;2022-12-07T15:47:30;3.38;;;2.20;;
59193;SDS011;44967;48.598;15.650;2022-12-07T15:50:01;2.28;;;2.08;;
59193;SDS011;44967;48.598;15.650;2022-12-07T15:52:27;2.58;;;2.03;;
59193;SDS011;44967;48.598;15.650;2022-12-07T15:54:53;3.63;;;2.28;;
59193;SDS011;44967;48.598;15.650;2022-12-07T15:57:19;3.53;;;2.85;;
59193;SDS011;44967;48.598;15.650;2022-12-07T15:59:44;3.22;;;2.22;;
59193;SDS011;44967;48.598;15.650;2022-12-07T16:02:10;3.60;;;2.47;;
59193;SDS011;44967;48.598;15.650;2022-12-07T16:04:36;3.65;;;2.63;;
59193;SDS011;44967;48.598;15.650;2022-12-07T16:07:02;4.30;;;2.40;;
59193;SDS011;44967;48.598;15.650;2022-12-07T16:09:28;3.58;;;2.58;;
59193;SDS011;44967;48.598;15.650;2022-12-07T16:11:54;3.45;;;2.67;;
59193;SDS011;44967;48.598;15.650;2022-12-07T16:14:19;3.55;;;2.28;;
59193;SDS011;44967;48.598;15.650;2022-12-07T16:16:46;2.83;;;2.25;;
59193;SDS011;44967;48.598;15.650;2022-12-07T16:19:12;4.03;;;2.60;;
59193;SDS011;44967;48.598;15.650;2022-12-07T16:21:37;3.80;;;2.47;;
59193;SDS011;44967;48.598;15.650;2022-12-07T16:24:03;4.55;;;2.88;;
59193;SDS011;44967;48.598;15.650;2022-12-07T16:26:30;4.43;;;2.80;;
59193;SDS011;44967;48.598;15.650;2022-12-07T16:28:57;3.10;;;2.63;;
59193;SDS011;44967;48.598;15.650;2022-12-07T16:31:24;4.38;;;2.53;;
59193;SDS011;44967;48.598;15.650;2022-12-07T16:33:54;3.92;;;2.30;;
59193;SDS011;44967;48.598;15.650;2022-12-07T16:36:22;3.85;;;2.72;;
59193;SDS011;44967;48.598;15.650;2022-12-07T16:38:49;5.93;;;3.60;;
59193;SDS011;44967;48.598;15.650;2022-12-07T16:41:17;4.32;;;2.92;;
59193;SDS011;44967;48.598;15.650;2022-12-07T16:43:43;3.65;;;2.78;;
59193;SDS011;44967;48.598;15.650;2022-12-07T16:46:08;4.72;;;3.05;;
59193;SDS011;44967;48.598;15.650;2022-12-07T16:48:38;4.07;;;2.35;;
59193;SDS011;44967;48.598;15.650;2022-12-07T16:51:05;5.45;;;3.08;;
59193;SDS011;44967;48.598;15.650;2022-12-07T16:53:34;4.85;;;2.92;;
59193;SDS011;44967;48.598;15.650;2022-12-07T16:56:01;4.28;;;2.63;;